EHDB weather

[Duplicate] KNMI
De Bilt, Utrecht, Netherlands

Public forecast

Using degrees Celsius for public forecast. Weather courtesy of forecast.io.

METAR (pilot weather report)

Closest report is Amsterdam Airport Schiphol, 19.7 nm (36.5 km) NW. Retrieved 2018/06/18 18:25 UTC (2 minutes ago):

EHAM 181825Z 24011KT 200V270 9999 FEW025 18/13 Q1019 NOSIG

TAF (pilot weather forecast)

Closest forecast is Amsterdam Airport Schiphol, 19.7 nm (36.5 km) NW. Retrieved 2018/06/18 18:27 UTC (4 seconds ago):

TAF TAF EHAM 181708Z 1818/1924 23012KT 9999 SCT035 BECMG 1902/1905 BKN012 PROB40 TEMPO 1904/1908 4500 -DZ BKN007 BECMG 1907/1910 26008KT BKN015 BECMG 1910/1913 SCT020 BECMG 1918/1921 21004KT